Tolley, North Dakota
Current Conditions -  °F | °C
As of 2:13 PM on Sunday 23 Nov 2014 (Local Time) from KMIB Reporting Station
Light Snow Light Snow  
Wind Chill: -1°   Ceiling: 1500
Heat Index: 18°   Visibility: 10mi
Dew Point: 12°   Wind: 25mph
Humidity: 79%   Direction: 320°NW
Pressure: 29.61"   Gusts: 31mph
Location:  48.73°N, 101.83°W
Report Text: KMIB 232013Z AUTO 32022G27KT 10SM -SN SCT010 BKN015 OVC023 M08/M11 A2961 RMK AO2 UPB1959E2008SNB2008 CIG 011V015
Loading
Personal Weather Stations






























Interactive Weather Map New forecast layout! Learn more

10-Day Weather Forecast

Advertisements
Track Severe Weather on mobile